sensor_id;sensor_type;location;lat;lon;timestamp;P1;durP1;ratioP1;P2;durP2;ratioP2
75209;SDS011;63796;53.136;14.882;2023-07-29T00:01:58;7.40;;;3.80;;
75209;SDS011;63796;53.136;14.882;2023-07-29T00:04:25;4.60;;;3.40;;
75209;SDS011;63796;53.136;14.882;2023-07-29T00:06:52;5.70;;;3.70;;
75209;SDS011;63796;53.136;14.882;2023-07-29T00:09:19;6.60;;;3.50;;
75209;SDS011;63796;53.136;14.882;2023-07-29T00:11:46;5.00;;;3.60;;
75209;SDS011;63796;53.136;14.882;2023-07-29T00:14:13;4.30;;;3.00;;
75209;SDS011;63796;53.136;14.882;2023-07-29T00:16:40;5.80;;;3.50;;
75209;SDS011;63796;53.136;14.882;2023-07-29T00:19:09;6.60;;;3.30;;
75209;SDS011;63796;53.136;14.882;2023-07-29T00:21:36;6.60;;;3.20;;
75209;SDS011;63796;53.136;14.882;2023-07-29T00:24:03;4.50;;;3.00;;
75209;SDS011;63796;53.136;14.882;2023-07-29T00:26:30;5.30;;;3.20;;
75209;SDS011;63796;53.136;14.882;2023-07-29T00:28:58;4.80;;;3.30;;
75209;SDS011;63796;53.136;14.882;2023-07-29T00:31:25;4.40;;;3.00;;
75209;SDS011;63796;53.136;14.882;2023-07-29T00:33:52;5.70;;;2.90;;
75209;SDS011;63796;53.136;14.882;2023-07-29T00:36:19;4.70;;;3.20;;
75209;SDS011;63796;53.136;14.882;2023-07-29T00:38:47;3.30;;;2.80;;
75209;SDS011;63796;53.136;14.882;2023-07-29T00:41:15;7.00;;;3.50;;
75209;SDS011;63796;53.136;14.882;2023-07-29T00:43:42;5.50;;;2.90;;
75209;SDS011;63796;53.136;14.882;2023-07-29T00:46:09;5.00;;;3.00;;
75209;SDS011;63796;53.136;14.882;2023-07-29T00:48:37;5.10;;;3.10;;
75209;SDS011;63796;53.136;14.882;2023-07-29T00:51:04;6.80;;;3.00;;
75209;SDS011;63796;53.136;14.882;2023-07-29T00:53:32;6.00;;;2.90;;
75209;SDS011;63796;53.136;14.882;2023-07-29T00:55:59;4.30;;;2.90;;
75209;SDS011;63796;53.136;14.882;2023-07-29T00:58:27;7.90;;;3.30;;
75209;SDS011;63796;53.136;14.882;2023-07-29T01:00:54;5.20;;;3.00;;
75209;SDS011;63796;53.136;14.882;2023-07-29T01:03:22;5.40;;;3.20;;
75209;SDS011;63796;53.136;14.882;2023-07-29T01:05:57;4.30;;;2.70;;
75209;SDS011;63796;53.136;14.882;2023-07-29T01:08:32;5.80;;;3.30;;
75209;SDS011;63796;53.136;14.882;2023-07-29T01:13:50;5.80;;;3.40;;
75209;SDS011;63796;53.136;14.882;2023-07-29T01:16:21;5.60;;;3.60;;
75209;SDS011;63796;53.136;14.882;2023-07-29T01:18:52;7.70;;;3.40;;
75209;SDS011;63796;53.136;14.882;2023-07-29T01:21:21;6.50;;;3.20;;
75209;SDS011;63796;53.136;14.882;2023-07-29T01:23:52;6.50;;;3.20;;
75209;SDS011;63796;53.136;14.882;2023-07-29T01:26:20;5.50;;;3.50;;
75209;SDS011;63796;53.136;14.882;2023-07-29T01:28:47;11.00;;;3.30;;
75209;SDS011;63796;53.136;14.882;2023-07-29T01:31:25;4.00;;;3.40;;
75209;SDS011;63796;53.136;14.882;2023-07-29T01:34:13;4.90;;;3.10;;
75209;SDS011;63796;53.136;14.882;2023-07-29T01:36:42;6.90;;;3.70;;
75209;SDS011;63796;53.136;14.882;2023-07-29T01:39:14;5.50;;;3.00;;
75209;SDS011;63796;53.136;14.882;2023-07-29T01:41:43;6.00;;;2.50;;
75209;SDS011;63796;53.136;14.882;2023-07-29T01:44:11;5.70;;;3.60;;
75209;SDS011;63796;53.136;14.882;2023-07-29T01:46:39;3.50;;;2.80;;
75209;SDS011;63796;53.136;14.882;2023-07-29T01:49:06;3.70;;;2.90;;
75209;SDS011;63796;53.136;14.882;2023-07-29T01:51:33;7.60;;;2.90;;
75209;SDS011;63796;53.136;14.882;2023-07-29T01:54:00;3.60;;;2.70;;
75209;SDS011;63796;53.136;14.882;2023-07-29T01:56:27;5.60;;;3.00;;
75209;SDS011;63796;53.136;14.882;2023-07-29T01:58:54;4.00;;;2.50;;
75209;SDS011;63796;53.136;14.882;2023-07-29T02:01:22;4.20;;;2.80;;
75209;SDS011;63796;53.136;14.882;2023-07-29T02:03:49;3.40;;;2.40;;
75209;SDS011;63796;53.136;14.882;2023-07-29T02:06:22;3.90;;;2.30;;
75209;SDS011;63796;53.136;14.882;2023-07-29T02:08:50;8.10;;;2.50;;
75209;SDS011;63796;53.136;14.882;2023-07-29T02:11:18;3.50;;;2.60;;
75209;SDS011;63796;53.136;14.882;2023-07-29T02:13:47;3.90;;;2.50;;
75209;SDS011;63796;53.136;14.882;2023-07-29T02:16:14;5.40;;;2.70;;
75209;SDS011;63796;53.136;14.882;2023-07-29T02:18:41;5.50;;;2.70;;
75209;SDS011;63796;53.136;14.882;2023-07-29T02:21:08;3.60;;;3.00;;
75209;SDS011;63796;53.136;14.882;2023-07-29T02:23:35;4.20;;;3.00;;
75209;SDS011;63796;53.136;14.882;2023-07-29T02:26:02;3.00;;;2.70;;
75209;SDS011;63796;53.136;14.882;2023-07-29T02:28:29;2.80;;;2.50;;
75209;SDS011;63796;53.136;14.882;2023-07-29T02:31:16;2.90;;;2.60;;
75209;SDS011;63796;53.136;14.882;2023-07-29T02:33:44;5.20;;;2.80;;
75209;SDS011;63796;53.136;14.882;2023-07-29T02:36:12;4.50;;;2.40;;
75209;SDS011;63796;53.136;14.882;2023-07-29T02:38:40;4.90;;;2.50;;
75209;SDS011;63796;53.136;14.882;2023-07-29T02:41:08;4.70;;;2.50;;
75209;SDS011;63796;53.136;14.882;2023-07-29T02:43:36;3.60;;;2.90;;
75209;SDS011;63796;53.136;14.882;2023-07-29T02:46:03;5.10;;;3.00;;
75209;SDS011;63796;53.136;14.882;2023-07-29T02:48:31;6.40;;;2.70;;
75209;SDS011;63796;53.136;14.882;2023-07-29T02:50:58;5.40;;;2.80;;
75209;SDS011;63796;53.136;14.882;2023-07-29T02:53:25;5.50;;;3.20;;
75209;SDS011;63796;53.136;14.882;2023-07-29T02:55:52;7.10;;;3.10;;
75209;SDS011;63796;53.136;14.882;2023-07-29T02:58:19;5.00;;;2.90;;
75209;SDS011;63796;53.136;14.882;2023-07-29T03:00:46;8.80;;;2.60;;
75209;SDS011;63796;53.136;14.882;2023-07-29T03:03:15;6.00;;;2.70;;
75209;SDS011;63796;53.136;14.882;2023-07-29T03:05:42;5.90;;;3.30;;
75209;SDS011;63796;53.136;14.882;2023-07-29T03:08:10;7.20;;;3.20;;
75209;SDS011;63796;53.136;14.882;2023-07-29T03:10:37;8.90;;;3.30;;
75209;SDS011;63796;53.136;14.882;2023-07-29T03:13:04;10.50;;;2.90;;
75209;SDS011;63796;53.136;14.882;2023-07-29T03:15:31;8.30;;;3.00;;
75209;SDS011;63796;53.136;14.882;2023-07-29T03:18:00;3.20;;;2.90;;
75209;SDS011;63796;53.136;14.882;2023-07-29T03:20:28;5.70;;;3.30;;
75209;SDS011;63796;53.136;14.882;2023-07-29T03:22:55;4.10;;;2.90;;
75209;SDS011;63796;53.136;14.882;2023-07-29T03:25:22;5.80;;;3.10;;
75209;SDS011;63796;53.136;14.882;2023-07-29T03:27:49;6.70;;;3.70;;
75209;SDS011;63796;53.136;14.882;2023-07-29T03:30:20;5.90;;;3.40;;
75209;SDS011;63796;53.136;14.882;2023-07-29T03:32:49;9.00;;;3.40;;
75209;SDS011;63796;53.136;14.882;2023-07-29T03:35:16;6.80;;;3.40;;
75209;SDS011;63796;53.136;14.882;2023-07-29T03:37:43;6.60;;;3.50;;
75209;SDS011;63796;53.136;14.882;2023-07-29T03:40:10;8.70;;;3.10;;
75209;SDS011;63796;53.136;14.882;2023-07-29T03:42:37;7.50;;;3.70;;
75209;SDS011;63796;53.136;14.882;2023-07-29T03:45:05;9.90;;;3.70;;
75209;SDS011;63796;53.136;14.882;2023-07-29T03:47:32;6.60;;;3.30;;
75209;SDS011;63796;53.136;14.882;2023-07-29T03:49:59;9.80;;;3.70;;
75209;SDS011;63796;53.136;14.882;2023-07-29T03:52:26;6.80;;;3.90;;
75209;SDS011;63796;53.136;14.882;2023-07-29T03:54:53;7.80;;;3.70;;
75209;SDS011;63796;53.136;14.882;2023-07-29T03:57:20;7.40;;;4.30;;
75209;SDS011;63796;53.136;14.882;2023-07-29T03:59:47;10.80;;;4.30;;
75209;SDS011;63796;53.136;14.882;2023-07-29T04:02:14;14.40;;;5.00;;
75209;SDS011;63796;53.136;14.882;2023-07-29T04:04:41;11.20;;;4.80;;
75209;SDS011;63796;53.136;14.882;2023-07-29T04:07:11;8.80;;;4.60;;
75209;SDS011;63796;53.136;14.882;2023-07-29T04:09:38;13.40;;;4.80;;
75209;SDS011;63796;53.136;14.882;2023-07-29T04:12:05;12.30;;;4.90;;
75209;SDS011;63796;53.136;14.882;2023-07-29T04:14:32;9.70;;;4.90;;
75209;SDS011;63796;53.136;14.882;2023-07-29T04:16:59;11.90;;;5.80;;
75209;SDS011;63796;53.136;14.882;2023-07-29T04:19:26;8.90;;;5.00;;
75209;SDS011;63796;53.136;14.882;2023-07-29T04:21:53;11.10;;;5.50;;
75209;SDS011;63796;53.136;14.882;2023-07-29T04:24:20;10.80;;;5.80;;
75209;SDS011;63796;53.136;14.882;2023-07-29T04:26:50;9.60;;;5.30;;
75209;SDS011;63796;53.136;14.882;2023-07-29T04:29:17;10.40;;;6.00;;
75209;SDS011;63796;53.136;14.882;2023-07-29T04:31:44;12.40;;;5.90;;
75209;SDS011;63796;53.136;14.882;2023-07-29T04:34:11;13.00;;;6.50;;
75209;SDS011;63796;53.136;14.882;2023-07-29T04:36:38;15.40;;;5.90;;
75209;SDS011;63796;53.136;14.882;2023-07-29T04:39:05;12.30;;;6.30;;
75209;SDS011;63796;53.136;14.882;2023-07-29T04:41:32;14.30;;;5.70;;
75209;SDS011;63796;53.136;14.882;2023-07-29T04:44:00;12.20;;;6.10;;
75209;SDS011;63796;53.136;14.882;2023-07-29T04:46:27;12.10;;;5.70;;
75209;SDS011;63796;53.136;14.882;2023-07-29T04:48:54;12.20;;;5.90;;
75209;SDS011;63796;53.136;14.882;2023-07-29T04:51:23;11.40;;;5.60;;
75209;SDS011;63796;53.136;14.882;2023-07-29T04:53:50;13.10;;;5.70;;
75209;SDS011;63796;53.136;14.882;2023-07-29T04:56:17;13.10;;;5.10;;
75209;SDS011;63796;53.136;14.882;2023-07-29T04:58:44;11.90;;;5.80;;
75209;SDS011;63796;53.136;14.882;2023-07-29T05:01:12;9.30;;;4.90;;
75209;SDS011;63796;53.136;14.882;2023-07-29T05:03:39;9.40;;;4.80;;
75209;SDS011;63796;53.136;14.882;2023-07-29T05:06:07;10.00;;;5.30;;
75209;SDS011;63796;53.136;14.882;2023-07-29T05:08:34;8.90;;;5.10;;
75209;SDS011;63796;53.136;14.882;2023-07-29T05:11:01;9.70;;;5.50;;
75209;SDS011;63796;53.136;14.882;2023-07-29T05:13:28;8.50;;;5.10;;
75209;SDS011;63796;53.136;14.882;2023-07-29T05:15:55;9.80;;;4.50;;
75209;SDS011;63796;53.136;14.882;2023-07-29T05:18:23;8.90;;;5.10;;
75209;SDS011;63796;53.136;14.882;2023-07-29T05:20:50;9.80;;;4.70;;
75209;SDS011;63796;53.136;14.882;2023-07-29T05:23:17;9.20;;;4.90;;
75209;SDS011;63796;53.136;14.882;2023-07-29T05:25:45;12.00;;;5.70;;
75209;SDS011;63796;53.136;14.882;2023-07-29T05:28:12;11.40;;;4.80;;
75209;SDS011;63796;53.136;14.882;2023-07-29T05:30:39;7.40;;;4.20;;
75209;SDS011;63796;53.136;14.882;2023-07-29T05:33:07;7.70;;;4.60;;
75209;SDS011;63796;53.136;14.882;2023-07-29T05:35:35;7.20;;;3.80;;
75209;SDS011;63796;53.136;14.882;2023-07-29T05:38:02;5.80;;;4.30;;
75209;SDS011;63796;53.136;14.882;2023-07-29T05:40:32;6.20;;;4.20;;
75209;SDS011;63796;53.136;14.882;2023-07-29T05:42:59;4.60;;;4.00;;
75209;SDS011;63796;53.136;14.882;2023-07-29T05:45:26;5.30;;;3.70;;
75209;SDS011;63796;53.136;14.882;2023-07-29T05:47:53;4.60;;;4.20;;
75209;SDS011;63796;53.136;14.882;2023-07-29T05:50:21;6.60;;;3.50;;
75209;SDS011;63796;53.136;14.882;2023-07-29T05:52:48;4.70;;;3.60;;
75209;SDS011;63796;53.136;14.882;2023-07-29T05:55:15;4.20;;;3.80;;
75209;SDS011;63796;53.136;14.882;2023-07-29T05:57:42;5.80;;;4.00;;
75209;SDS011;63796;53.136;14.882;2023-07-29T06:00:10;3.90;;;3.50;;
75209;SDS011;63796;53.136;14.882;2023-07-29T06:02:38;6.20;;;3.70;;
75209;SDS011;63796;53.136;14.882;2023-07-29T06:05:05;4.20;;;3.10;;
75209;SDS011;63796;53.136;14.882;2023-07-29T06:07:32;5.30;;;3.10;;
75209;SDS011;63796;53.136;14.882;2023-07-29T06:10:00;4.70;;;3.20;;
75209;SDS011;63796;53.136;14.882;2023-07-29T06:12:27;5.10;;;3.70;;
75209;SDS011;63796;53.136;14.882;2023-07-29T06:14:54;3.70;;;3.00;;
75209;SDS011;63796;53.136;14.882;2023-07-29T06:17:21;3.40;;;3.10;;
75209;SDS011;63796;53.136;14.882;2023-07-29T06:19:49;3.90;;;3.50;;
75209;SDS011;63796;53.136;14.882;2023-07-29T06:22:16;4.20;;;3.10;;
75209;SDS011;63796;53.136;14.882;2023-07-29T06:24:43;3.90;;;3.40;;
75209;SDS011;63796;53.136;14.882;2023-07-29T06:27:10;4.60;;;3.40;;
75209;SDS011;63796;53.136;14.882;2023-07-29T06:29:37;4.50;;;3.10;;
75209;SDS011;63796;53.136;14.882;2023-07-29T06:32:05;3.90;;;3.30;;
75209;SDS011;63796;53.136;14.882;2023-07-29T06:34:32;3.90;;;3.40;;
75209;SDS011;63796;53.136;14.882;2023-07-29T06:36:59;3.10;;;2.70;;
75209;SDS011;63796;53.136;14.882;2023-07-29T06:39:26;4.30;;;3.00;;
75209;SDS011;63796;53.136;14.882;2023-07-29T06:41:53;3.00;;;2.40;;
75209;SDS011;63796;53.136;14.882;2023-07-29T06:44:20;4.70;;;2.30;;
75209;SDS011;63796;53.136;14.882;2023-07-29T06:46:47;2.40;;;1.90;;
75209;SDS011;63796;53.136;14.882;2023-07-29T06:49:15;2.00;;;1.90;;
75209;SDS011;63796;53.136;14.882;2023-07-29T06:51:42;2.30;;;1.90;;
75209;SDS011;63796;53.136;14.882;2023-07-29T06:54:09;2.80;;;1.90;;
75209;SDS011;63796;53.136;14.882;2023-07-29T06:56:36;1.50;;;1.40;;
75209;SDS011;63796;53.136;14.882;2023-07-29T06:59:04;2.40;;;2.20;;
75209;SDS011;63796;53.136;14.882;2023-07-29T07:01:31;2.70;;;2.60;;
75209;SDS011;63796;53.136;14.882;2023-07-29T07:03:58;2.50;;;2.30;;
75209;SDS011;63796;53.136;14.882;2023-07-29T07:06:25;3.50;;;2.20;;
75209;SDS011;63796;53.136;14.882;2023-07-29T07:08:53;2.60;;;2.40;;
75209;SDS011;63796;53.136;14.882;2023-07-29T07:11:20;2.80;;;2.20;;
75209;SDS011;63796;53.136;14.882;2023-07-29T07:13:47;2.40;;;2.30;;
75209;SDS011;63796;53.136;14.882;2023-07-29T07:16:14;3.50;;;3.30;;
75209;SDS011;63796;53.136;14.882;2023-07-29T07:18:41;3.60;;;3.40;;
75209;SDS011;63796;53.136;14.882;2023-07-29T07:21:08;3.30;;;3.10;;
75209;SDS011;63796;53.136;14.882;2023-07-29T07:23:35;4.00;;;3.70;;
75209;SDS011;63796;53.136;14.882;2023-07-29T07:26:03;5.00;;;2.90;;
75209;SDS011;63796;53.136;14.882;2023-07-29T07:28:31;3.00;;;2.90;;
75209;SDS011;63796;53.136;14.882;2023-07-29T07:30:58;2.70;;;2.50;;
75209;SDS011;63796;53.136;14.882;2023-07-29T07:33:26;2.90;;;2.70;;
75209;SDS011;63796;53.136;14.882;2023-07-29T07:35:53;3.20;;;3.00;;
75209;SDS011;63796;53.136;14.882;2023-07-29T07:38:20;3.40;;;3.20;;
75209;SDS011;63796;53.136;14.882;2023-07-29T07:40:54;4.60;;;3.20;;
75209;SDS011;63796;53.136;14.882;2023-07-29T07:43:24;3.00;;;2.80;;
75209;SDS011;63796;53.136;14.882;2023-07-29T07:45:58;3.20;;;2.80;;
75209;SDS011;63796;53.136;14.882;2023-07-29T07:48:26;2.90;;;2.80;;
75209;SDS011;63796;53.136;14.882;2023-07-29T07:50:54;3.10;;;2.90;;
75209;SDS011;63796;53.136;14.882;2023-07-29T07:53:21;3.70;;;3.40;;
75209;SDS011;63796;53.136;14.882;2023-07-29T07:55:48;5.60;;;3.10;;
75209;SDS011;63796;53.136;14.882;2023-07-29T07:58:15;4.70;;;3.20;;
75209;SDS011;63796;53.136;14.882;2023-07-29T08:00:42;3.90;;;3.70;;
75209;SDS011;63796;53.136;14.882;2023-07-29T08:03:09;4.10;;;3.80;;
75209;SDS011;63796;53.136;14.882;2023-07-29T08:05:36;4.70;;;3.80;;
75209;SDS011;63796;53.136;14.882;2023-07-29T08:08:04;4.00;;;3.60;;
75209;SDS011;63796;53.136;14.882;2023-07-29T08:10:31;3.90;;;3.60;;
75209;SDS011;63796;53.136;14.882;2023-07-29T08:12:58;5.10;;;3.60;;
75209;SDS011;63796;53.136;14.882;2023-07-29T08:15:26;6.40;;;3.50;;
75209;SDS011;63796;53.136;14.882;2023-07-29T08:17:53;3.70;;;3.40;;
75209;SDS011;63796;53.136;14.882;2023-07-29T08:20:20;3.50;;;3.30;;
75209;SDS011;63796;53.136;14.882;2023-07-29T08:22:47;4.50;;;4.30;;
75209;SDS011;63796;53.136;14.882;2023-07-29T08:25:14;4.30;;;3.90;;
75209;SDS011;63796;53.136;14.882;2023-07-29T08:27:41;4.90;;;4.60;;
75209;SDS011;63796;53.136;14.882;2023-07-29T08:30:08;4.70;;;4.50;;
75209;SDS011;63796;53.136;14.882;2023-07-29T08:32:36;4.40;;;4.20;;
75209;SDS011;63796;53.136;14.882;2023-07-29T08:35:04;4.50;;;4.20;;
75209;SDS011;63796;53.136;14.882;2023-07-29T08:37:31;4.80;;;4.50;;
75209;SDS011;63796;53.136;14.882;2023-07-29T08:39:59;3.90;;;3.50;;
75209;SDS011;63796;53.136;14.882;2023-07-29T08:42:29;5.00;;;4.70;;
75209;SDS011;63796;53.136;14.882;2023-07-29T08:44:56;3.40;;;3.20;;
75209;SDS011;63796;53.136;14.882;2023-07-29T08:47:23;3.60;;;3.30;;
75209;SDS011;63796;53.136;14.882;2023-07-29T08:49:51;3.40;;;3.10;;
75209;SDS011;63796;53.136;14.882;2023-07-29T08:52:20;2.90;;;2.70;;
75209;SDS011;63796;53.136;14.882;2023-07-29T08:54:47;2.90;;;2.70;;
75209;SDS011;63796;53.136;14.882;2023-07-29T08:57:14;6.40;;;2.50;;
75209;SDS011;63796;53.136;14.882;2023-07-29T08:59:41;2.60;;;1.90;;
75209;SDS011;63796;53.136;14.882;2023-07-29T09:02:09;2.10;;;1.90;;
75209;SDS011;63796;53.136;14.882;2023-07-29T09:04:36;4.50;;;2.40;;
75209;SDS011;63796;53.136;14.882;2023-07-29T09:07:05;2.20;;;1.90;;
75209;SDS011;63796;53.136;14.882;2023-07-29T09:09:33;5.90;;;1.70;;
75209;SDS011;63796;53.136;14.882;2023-07-29T09:12:01;5.30;;;2.00;;
75209;SDS011;63796;53.136;14.882;2023-07-29T09:14:28;2.90;;;2.00;;
75209;SDS011;63796;53.136;14.882;2023-07-29T09:16:55;1.80;;;1.70;;
75209;SDS011;63796;53.136;14.882;2023-07-29T09:19:25;2.30;;;2.10;;
75209;SDS011;63796;53.136;14.882;2023-07-29T09:21:53;2.20;;;2.00;;
75209;SDS011;63796;53.136;14.882;2023-07-29T09:24:21;1.80;;;1.70;;
75209;SDS011;63796;53.136;14.882;2023-07-29T09:26:49;2.70;;;2.00;;
75209;SDS011;63796;53.136;14.882;2023-07-29T09:29:22;2.20;;;2.10;;
75209;SDS011;63796;53.136;14.882;2023-07-29T09:31:49;2.40;;;2.10;;
75209;SDS011;63796;53.136;14.882;2023-07-29T09:34:17;2.50;;;2.20;;
75209;SDS011;63796;53.136;14.882;2023-07-29T09:36:44;1.90;;;1.80;;
75209;SDS011;63796;53.136;14.882;2023-07-29T09:39:12;3.40;;;2.20;;
75209;SDS011;63796;53.136;14.882;2023-07-29T09:41:47;3.60;;;2.50;;
75209;SDS011;63796;53.136;14.882;2023-07-29T09:44:15;2.30;;;2.10;;
75209;SDS011;63796;53.136;14.882;2023-07-29T09:46:46;2.20;;;2.10;;
75209;SDS011;63796;53.136;14.882;2023-07-29T09:49:13;2.20;;;2.10;;
75209;SDS011;63796;53.136;14.882;2023-07-29T09:51:40;2.40;;;2.10;;
75209;SDS011;63796;53.136;14.882;2023-07-29T09:54:09;2.70;;;2.50;;
75209;SDS011;63796;53.136;14.882;2023-07-29T09:56:41;3.50;;;2.40;;
75209;SDS011;63796;53.136;14.882;2023-07-29T09:59:10;2.30;;;2.10;;
75209;SDS011;63796;53.136;14.882;2023-07-29T10:01:38;3.30;;;1.80;;
75209;SDS011;63796;53.136;14.882;2023-07-29T10:04:07;3.60;;;1.40;;
75209;SDS011;63796;53.136;14.882;2023-07-29T10:06:39;4.50;;;1.90;;
75209;SDS011;63796;53.136;14.882;2023-07-29T10:09:07;4.60;;;2.20;;
75209;SDS011;63796;53.136;14.882;2023-07-29T10:11:35;2.00;;;1.90;;
75209;SDS011;63796;53.136;14.882;2023-07-29T10:14:03;1.90;;;1.80;;
75209;SDS011;63796;53.136;14.882;2023-07-29T10:16:39;3.20;;;2.10;;
75209;SDS011;63796;53.136;14.882;2023-07-29T10:19:07;3.40;;;2.00;;
75209;SDS011;63796;53.136;14.882;2023-07-29T10:21:38;5.50;;;2.20;;
75209;SDS011;63796;53.136;14.882;2023-07-29T10:24:09;3.00;;;2.30;;
75209;SDS011;63796;53.136;14.882;2023-07-29T10:26:40;3.50;;;2.60;;
75209;SDS011;63796;53.136;14.882;2023-07-29T10:29:12;2.10;;;1.90;;
75209;SDS011;63796;53.136;14.882;2023-07-29T10:31:42;3.60;;;2.10;;
75209;SDS011;63796;53.136;14.882;2023-07-29T10:34:10;3.80;;;2.40;;
75209;SDS011;63796;53.136;14.882;2023-07-29T10:36:38;5.30;;;2.50;;
75209;SDS011;63796;53.136;14.882;2023-07-29T10:39:09;12.00;;;2.60;;
75209;SDS011;63796;53.136;14.882;2023-07-29T10:41:57;28.00;;;3.50;;
75209;SDS011;63796;53.136;14.882;2023-07-29T10:47:27;13.70;;;3.10;;
75209;SDS011;63796;53.136;14.882;2023-07-29T10:49:57;5.00;;;3.00;;
75209;SDS011;63796;53.136;14.882;2023-07-29T10:52:40;9.20;;;4.10;;
75209;SDS011;63796;53.136;14.882;2023-07-29T10:55:26;31.10;;;6.50;;
75209;SDS011;63796;53.136;14.882;2023-07-29T10:58:05;8.30;;;3.90;;
75209;SDS011;63796;53.136;14.882;2023-07-29T11:00:33;5.70;;;3.20;;
75209;SDS011;63796;53.136;14.882;2023-07-29T11:03:02;4.90;;;3.10;;
75209;SDS011;63796;53.136;14.882;2023-07-29T11:10:57;3.60;;;2.70;;
75209;SDS011;63796;53.136;14.882;2023-07-29T11:13:29;3.30;;;2.60;;
75209;SDS011;63796;53.136;14.882;2023-07-29T11:15:58;2.10;;;2.00;;
75209;SDS011;63796;53.136;14.882;2023-07-29T11:18:30;2.80;;;2.20;;
75209;SDS011;63796;53.136;14.882;2023-07-29T11:20:58;3.30;;;1.90;;
75209;SDS011;63796;53.136;14.882;2023-07-29T11:23:34;2.10;;;2.00;;
75209;SDS011;63796;53.136;14.882;2023-07-29T11:26:03;2.80;;;2.70;;
75209;SDS011;63796;53.136;14.882;2023-07-29T11:28:30;2.50;;;2.30;;
75209;SDS011;63796;53.136;14.882;2023-07-29T11:30:58;2.40;;;2.20;;
75209;SDS011;63796;53.136;14.882;2023-07-29T11:33:26;6.40;;;2.60;;
75209;SDS011;63796;53.136;14.882;2023-07-29T11:35:55;3.00;;;2.70;;
75209;SDS011;63796;53.136;14.882;2023-07-29T11:38:23;2.50;;;2.30;;
75209;SDS011;63796;53.136;14.882;2023-07-29T11:41:00;3.80;;;2.40;;
75209;SDS011;63796;53.136;14.882;2023-07-29T11:43:34;4.40;;;2.30;;
75209;SDS011;63796;53.136;14.882;2023-07-29T11:46:02;2.00;;;1.70;;
75209;SDS011;63796;53.136;14.882;2023-07-29T11:48:32;2.90;;;2.10;;
75209;SDS011;63796;53.136;14.882;2023-07-29T11:51:00;2.70;;;2.10;;
75209;SDS011;63796;53.136;14.882;2023-07-29T11:53:28;2.40;;;1.90;;
75209;SDS011;63796;53.136;14.882;2023-07-29T11:55:57;2.20;;;2.00;;
75209;SDS011;63796;53.136;14.882;2023-07-29T11:58:25;5.10;;;2.00;;
75209;SDS011;63796;53.136;14.882;2023-07-29T12:00:53;4.40;;;1.90;;
75209;SDS011;63796;53.136;14.882;2023-07-29T12:03:20;3.80;;;1.60;;
75209;SDS011;63796;53.136;14.882;2023-07-29T12:05:48;1.70;;;1.60;;
75209;SDS011;63796;53.136;14.882;2023-07-29T12:08:16;2.60;;;1.50;;
75209;SDS011;63796;53.136;14.882;2023-07-29T12:10:43;1.80;;;1.70;;
75209;SDS011;63796;53.136;14.882;2023-07-29T12:13:10;2.30;;;1.50;;
75209;SDS011;63796;53.136;14.882;2023-07-29T12:15:38;2.70;;;1.60;;
75209;SDS011;63796;53.136;14.882;2023-07-29T12:18:06;2.40;;;1.10;;
75209;SDS011;63796;53.136;14.882;2023-07-29T12:20:34;2.20;;;1.30;;
75209;SDS011;63796;53.136;14.882;2023-07-29T12:23:01;2.30;;;1.10;;
75209;SDS011;63796;53.136;14.882;2023-07-29T12:25:29;3.10;;;1.00;;
75209;SDS011;63796;53.136;14.882;2023-07-29T12:28:02;1.80;;;1.30;;
75209;SDS011;63796;53.136;14.882;2023-07-29T12:30:30;1.70;;;1.30;;
75209;SDS011;63796;53.136;14.882;2023-07-29T12:32:57;9.20;;;2.00;;
75209;SDS011;63796;53.136;14.882;2023-07-29T12:35:24;2.10;;;1.20;;
75209;SDS011;63796;53.136;14.882;2023-07-29T12:38:00;1.90;;;1.30;;
75209;SDS011;63796;53.136;14.882;2023-07-29T12:40:27;1.10;;;1.10;;
75209;SDS011;63796;53.136;14.882;2023-07-29T12:42:55;2.00;;;1.30;;
75209;SDS011;63796;53.136;14.882;2023-07-29T12:45:22;0.90;;;0.90;;
75209;SDS011;63796;53.136;14.882;2023-07-29T12:47:53;2.20;;;1.20;;
75209;SDS011;63796;53.136;14.882;2023-07-29T12:50:20;1.20;;;1.10;;
75209;SDS011;63796;53.136;14.882;2023-07-29T12:52:48;1.80;;;1.30;;
75209;SDS011;63796;53.136;14.882;2023-07-29T12:55:15;1.20;;;1.10;;
75209;SDS011;63796;53.136;14.882;2023-07-29T12:57:46;3.20;;;1.40;;
75209;SDS011;63796;53.136;14.882;2023-07-29T13:00:13;1.30;;;1.20;;
75209;SDS011;63796;53.136;14.882;2023-07-29T13:02:40;1.70;;;1.60;;
75209;SDS011;63796;53.136;14.882;2023-07-29T13:05:11;1.80;;;1.70;;
75209;SDS011;63796;53.136;14.882;2023-07-29T13:07:39;2.10;;;1.50;;
75209;SDS011;63796;53.136;14.882;2023-07-29T13:10:07;4.70;;;1.60;;
75209;SDS011;63796;53.136;14.882;2023-07-29T13:12:34;2.80;;;1.60;;
75209;SDS011;63796;53.136;14.882;2023-07-29T13:15:01;3.00;;;1.10;;
75209;SDS011;63796;53.136;14.882;2023-07-29T13:17:29;5.90;;;1.70;;
75209;SDS011;63796;53.136;14.882;2023-07-29T13:19:56;5.10;;;2.00;;
75209;SDS011;63796;53.136;14.882;2023-07-29T13:22:23;1.70;;;0.80;;
75209;SDS011;63796;53.136;14.882;2023-07-29T13:24:50;5.00;;;1.20;;
75209;SDS011;63796;53.136;14.882;2023-07-29T13:27:17;6.90;;;1.10;;
75209;SDS011;63796;53.136;14.882;2023-07-29T13:29:44;4.70;;;1.90;;
75209;SDS011;63796;53.136;14.882;2023-07-29T13:32:12;4.30;;;1.20;;
75209;SDS011;63796;53.136;14.882;2023-07-29T13:34:39;12.00;;;1.10;;
75209;SDS011;63796;53.136;14.882;2023-07-29T13:37:07;6.00;;;1.30;;
75209;SDS011;63796;53.136;14.882;2023-07-29T13:39:34;6.50;;;1.10;;
75209;SDS011;63796;53.136;14.882;2023-07-29T13:42:01;3.70;;;0.90;;
75209;SDS011;63796;53.136;14.882;2023-07-29T13:44:29;5.00;;;1.00;;
75209;SDS011;63796;53.136;14.882;2023-07-29T13:46:56;6.00;;;1.10;;
75209;SDS011;63796;53.136;14.882;2023-07-29T13:49:23;2.50;;;0.90;;
75209;SDS011;63796;53.136;14.882;2023-07-29T13:51:50;4.70;;;1.00;;
75209;SDS011;63796;53.136;14.882;2023-07-29T13:54:17;3.40;;;1.20;;
75209;SDS011;63796;53.136;14.882;2023-07-29T13:56:44;4.70;;;1.00;;
75209;SDS011;63796;53.136;14.882;2023-07-29T13:59:11;7.60;;;1.30;;
75209;SDS011;63796;53.136;14.882;2023-07-29T14:01:38;4.50;;;1.60;;
75209;SDS011;63796;53.136;14.882;2023-07-29T14:04:05;3.50;;;0.90;;
75209;SDS011;63796;53.136;14.882;2023-07-29T14:06:32;3.30;;;1.30;;
75209;SDS011;63796;53.136;14.882;2023-07-29T14:09:12;7.70;;;1.20;;
75209;SDS011;63796;53.136;14.882;2023-07-29T14:11:39;12.80;;;1.60;;
75209;SDS011;63796;53.136;14.882;2023-07-29T14:14:07;7.30;;;1.80;;
75209;SDS011;63796;53.136;14.882;2023-07-29T14:16:34;3.20;;;1.40;;
75209;SDS011;63796;53.136;14.882;2023-07-29T14:19:02;6.00;;;2.50;;
75209;SDS011;63796;53.136;14.882;2023-07-29T14:21:30;11.70;;;9.50;;
75209;SDS011;63796;53.136;14.882;2023-07-29T14:23:57;4.70;;;2.80;;
75209;SDS011;63796;53.136;14.882;2023-07-29T14:26:24;3.60;;;1.30;;
75209;SDS011;63796;53.136;14.882;2023-07-29T14:28:51;3.40;;;0.80;;
75209;SDS011;63796;53.136;14.882;2023-07-29T14:31:18;3.10;;;1.10;;
75209;SDS011;63796;53.136;14.882;2023-07-29T14:33:45;2.80;;;1.30;;
75209;SDS011;63796;53.136;14.882;2023-07-29T14:36:12;5.90;;;1.60;;
75209;SDS011;63796;53.136;14.882;2023-07-29T14:38:40;4.50;;;1.10;;
75209;SDS011;63796;53.136;14.882;2023-07-29T14:41:07;3.20;;;0.90;;
75209;SDS011;63796;53.136;14.882;2023-07-29T14:43:35;4.40;;;1.50;;
75209;SDS011;63796;53.136;14.882;2023-07-29T14:46:02;6.90;;;1.30;;
75209;SDS011;63796;53.136;14.882;2023-07-29T14:48:29;4.70;;;1.20;;
75209;SDS011;63796;53.136;14.882;2023-07-29T14:50:56;7.20;;;1.70;;